createdAt,value
2017-08-18T00:01:07.543Z,19.26
2017-08-18T00:03:34.992Z,19.26
2017-08-18T00:06:02.480Z,19.51
2017-08-18T00:08:29.972Z,19.56
2017-08-18T00:10:57.441Z,19.52
2017-08-18T00:13:24.942Z,19.63
2017-08-18T00:15:52.427Z,19.74
2017-08-18T00:18:19.875Z,19.87
2017-08-18T00:20:47.374Z,19.86
2017-08-18T00:23:14.916Z,19.66
2017-08-18T00:25:42.506Z,19.80
2017-08-18T00:28:10.040Z,19.78
2017-08-18T00:30:37.604Z,19.75
2017-08-18T00:33:05.173Z,19.81
2017-08-18T00:35:32.745Z,19.74
2017-08-18T00:38:00.936Z,19.75
2017-08-18T00:40:28.395Z,19.77
2017-08-18T00:42:55.868Z,19.95
2017-08-18T00:45:23.378Z,20.11
2017-08-18T00:47:50.879Z,20.00
2017-08-18T00:50:18.332Z,19.89
2017-08-18T00:52:45.815Z,19.73
2017-08-18T00:55:13.264Z,19.80
2017-08-18T00:57:40.834Z,19.76
2017-08-18T01:00:08.276Z,19.64
2017-08-18T01:02:35.857Z,19.64
2017-08-18T01:05:03.312Z,19.76
2017-08-18T01:07:30.871Z,19.93
2017-08-18T01:09:58.338Z,19.80
2017-08-18T01:12:25.893Z,19.82
2017-08-18T01:14:53.371Z,19.80
2017-08-18T01:17:20.891Z,19.89
2017-08-18T01:19:48.355Z,19.74
2017-08-18T01:22:15.819Z,19.91
2017-08-18T01:24:43.389Z,19.89
2017-08-18T01:27:10.933Z,19.71
2017-08-18T01:29:38.486Z,19.71
2017-08-18T01:32:05.949Z,19.74
2017-08-18T01:34:33.507Z,19.70
2017-08-18T01:37:00.967Z,19.78
2017-08-18T01:39:28.444Z,19.89
2017-08-18T01:41:55.902Z,20.02
2017-08-18T01:44:23.361Z,19.88
2017-08-18T01:46:50.902Z,19.92
2017-08-18T01:49:18.451Z,20.13
2017-08-18T01:51:45.950Z,20.02
2017-08-18T01:54:13.489Z,19.87
2017-08-18T01:56:40.963Z,19.87
2017-08-18T01:59:08.431Z,19.81
2017-08-18T02:01:35.917Z,19.80
2017-08-18T02:04:03.374Z,19.82
2017-08-18T02:06:30.903Z,19.88
2017-08-18T02:09:33.740Z,19.93
2017-08-18T02:12:01.225Z,19.87
2017-08-18T02:14:28.755Z,19.90
2017-08-18T02:16:56.875Z,19.79
2017-08-18T02:19:24.339Z,19.81
2017-08-18T02:21:51.818Z,19.70
2017-08-18T02:24:19.292Z,19.67
2017-08-18T02:26:46.767Z,19.64
2017-08-18T02:29:14.340Z,19.58
2017-08-18T02:31:41.822Z,19.64
2017-08-18T02:34:09.270Z,19.67
2017-08-18T02:36:36.749Z,19.71
2017-08-18T02:39:04.209Z,19.67
2017-08-18T02:41:31.696Z,19.78
2017-08-18T02:43:59.181Z,19.74
2017-08-18T02:46:26.711Z,19.78
2017-08-18T02:48:54.189Z,19.82
2017-08-18T02:51:21.728Z,19.91
2017-08-18T02:53:49.231Z,19.88
2017-08-18T02:56:16.710Z,19.62
2017-08-18T02:58:44.183Z,19.53
2017-08-18T03:01:11.630Z,19.31
2017-08-18T03:03:39.222Z,19.55
2017-08-18T03:06:06.673Z,19.49
2017-08-18T03:08:34.153Z,19.34
2017-08-18T03:11:01.633Z,19.22
2017-08-18T03:13:29.117Z,19.24
2017-08-18T03:15:56.607Z,19.37
2017-08-18T03:18:24.170Z,19.31
2017-08-18T03:20:51.619Z,19.23
2017-08-18T03:23:19.171Z,19.16
2017-08-18T03:25:46.639Z,19.28
2017-08-18T03:28:14.191Z,19.37
2017-08-18T03:30:41.664Z,19.39
2017-08-18T03:33:09.111Z,19.43
2017-08-18T03:35:36.710Z,19.40
2017-08-18T03:38:04.216Z,19.32
2017-08-18T03:40:32.340Z,18.99
2017-08-18T03:42:59.793Z,18.93
2017-08-18T03:45:27.325Z,18.94
2017-08-18T03:47:54.783Z,19.24
2017-08-18T03:50:22.317Z,19.41
2017-08-18T03:52:49.767Z,19.34
2017-08-18T03:55:17.327Z,19.45
2017-08-18T03:57:44.788Z,19.38
2017-08-18T04:00:12.287Z,19.19
2017-08-18T04:02:39.750Z,19.13
2017-08-18T04:05:07.206Z,19.09
2017-08-18T04:07:34.697Z,19.23
2017-08-18T04:10:02.152Z,19.09
2017-08-18T04:12:29.727Z,19.30
2017-08-18T04:14:57.184Z,19.08
2017-08-18T04:17:24.658Z,19.00
2017-08-18T04:19:52.104Z,18.94
2017-08-18T04:22:19.597Z,18.97
2017-08-18T04:24:47.089Z,19.11
2017-08-18T04:27:14.574Z,19.13
2017-08-18T04:29:42.068Z,19.14
2017-08-18T04:32:09.575Z,19.11
2017-08-18T04:34:37.916Z,19.21
2017-08-18T04:37:05.425Z,18.99
2017-08-18T04:39:32.876Z,18.95
2017-08-18T04:42:00.437Z,18.98
2017-08-18T04:44:27.913Z,19.25
2017-08-18T04:46:55.428Z,19.35
2017-08-18T04:49:22.878Z,19.32
2017-08-18T04:51:50.373Z,19.38
2017-08-18T04:54:17.831Z,19.49
2017-08-18T04:56:45.313Z,19.53
2017-08-18T04:59:13.070Z,19.56
2017-08-18T05:01:40.528Z,19.69
2017-08-18T05:04:08.002Z,19.63
2017-08-18T05:06:35.509Z,19.46
2017-08-18T05:09:02.990Z,19.39
2017-08-18T05:11:30.479Z,19.49
2017-08-18T05:13:57.985Z,19.39
2017-08-18T05:16:25.439Z,19.40
2017-08-18T05:18:53.001Z,19.43
2017-08-18T05:21:20.447Z,19.46
2017-08-18T05:23:47.932Z,19.47
2017-08-18T05:26:15.481Z,19.63
2017-08-18T05:28:43.032Z,19.63
2017-08-18T05:31:10.591Z,19.68
2017-08-18T05:33:38.120Z,19.73
2017-08-18T05:36:05.660Z,19.96
2017-08-18T05:38:33.145Z,20.50
2017-08-18T05:41:00.606Z,20.75
2017-08-18T05:43:28.103Z,21.21
2017-08-18T05:45:55.555Z,21.63
2017-08-18T05:48:23.029Z,21.82
2017-08-18T05:50:50.511Z,21.67
2017-08-18T05:53:18.030Z,21.46
2017-08-18T05:55:45.522Z,21.28
2017-08-18T05:58:12.984Z,21.29
2017-08-18T06:00:40.494Z,21.28
2017-08-18T06:03:07.951Z,20.98
2017-08-18T06:05:35.430Z,20.80
2017-08-18T06:08:02.953Z,20.67
2017-08-18T06:10:31.707Z,20.61
2017-08-18T06:12:59.341Z,20.68
2017-08-18T06:15:26.823Z,20.39
2017-08-18T06:17:54.278Z,20.68
2017-08-18T06:20:21.781Z,20.67
2017-08-18T06:22:49.672Z,20.54
2017-08-18T06:25:17.147Z,20.53
2017-08-18T06:27:44.596Z,20.82
2017-08-18T06:30:12.099Z,21.35
2017-08-18T06:32:39.545Z,21.27
2017-08-18T06:35:07.016Z,21.31
2017-08-18T06:37:34.520Z,21.27
2017-08-18T06:40:02.146Z,21.36
2017-08-18T06:42:29.660Z,21.29
2017-08-18T06:44:57.713Z,21.37
2017-08-18T06:47:25.179Z,21.33
2017-08-18T06:49:52.631Z,21.39
2017-08-18T06:52:20.429Z,21.40
2017-08-18T06:54:47.889Z,21.34
2017-08-18T06:57:15.457Z,21.53
2017-08-18T06:59:43.028Z,21.75
2017-08-18T07:02:10.605Z,22.09
2017-08-18T07:04:38.126Z,22.04
2017-08-18T07:07:05.679Z,22.07
2017-08-18T07:09:33.161Z,22.02
2017-08-18T07:12:00.658Z,22.02
2017-08-18T07:14:28.117Z,21.88
2017-08-18T07:16:55.569Z,21.90
2017-08-18T07:19:23.044Z,21.76
2017-08-18T07:21:50.509Z,21.87
2017-08-18T07:24:17.995Z,21.93
2017-08-18T07:26:45.444Z,21.96
2017-08-18T07:29:12.916Z,22.09
2017-08-18T07:31:40.367Z,22.01
2017-08-18T07:34:07.860Z,21.89
2017-08-18T07:36:35.363Z,22.12
2017-08-18T07:39:02.831Z,21.89
2017-08-18T07:41:30.299Z,21.89
2017-08-18T07:43:57.847Z,21.91
2017-08-18T07:46:25.319Z,21.89
2017-08-18T07:48:52.854Z,22.03
2017-08-18T07:51:20.310Z,22.03
2017-08-18T07:53:47.793Z,21.89
2017-08-18T07:56:15.379Z,21.98
2017-08-18T07:58:42.900Z,22.12
2017-08-18T08:01:10.461Z,22.10
2017-08-18T08:03:37.931Z,22.22
2017-08-18T08:06:05.464Z,22.30
2017-08-18T08:08:33.215Z,22.34
2017-08-18T08:11:00.672Z,22.37
2017-08-18T08:13:28.146Z,22.37
2017-08-18T08:15:55.657Z,22.26
2017-08-18T08:18:23.183Z,22.38
2017-08-18T08:20:50.726Z,22.57
2017-08-18T08:23:18.222Z,22.59
2017-08-18T08:25:45.690Z,22.68
2017-08-18T08:28:13.141Z,22.90
2017-08-18T08:30:40.637Z,23.06
2017-08-18T08:33:08.108Z,23.06
2017-08-18T08:35:35.656Z,23.10
2017-08-18T08:38:03.099Z,23.33
2017-08-18T08:40:30.579Z,23.34
2017-08-18T08:42:58.044Z,23.49
2017-08-18T08:45:25.569Z,23.79
2017-08-18T08:47:53.098Z,23.61
2017-08-18T08:50:20.723Z,23.79
2017-08-18T08:52:48.192Z,24.04
2017-08-18T08:55:15.707Z,24.19
2017-08-18T08:57:43.201Z,24.24
2017-08-18T09:00:10.745Z,24.10
2017-08-18T09:02:38.199Z,24.08
2017-08-18T09:05:05.658Z,24.08
2017-08-18T09:07:33.208Z,24.22
2017-08-18T09:10:00.716Z,24.48
2017-08-18T09:12:28.236Z,24.54
2017-08-18T09:14:55.778Z,24.46
2017-08-18T09:17:23.258Z,24.43
2017-08-18T09:19:50.833Z,24.37
2017-08-18T09:22:18.713Z,24.40
2017-08-18T09:24:46.196Z,24.75
2017-08-18T09:27:13.803Z,24.96
2017-08-18T09:29:41.263Z,25.04
2017-08-18T09:32:08.862Z,24.98
2017-08-18T09:34:36.351Z,25.09
2017-08-18T09:37:04.145Z,25.20
2017-08-18T09:39:32.997Z,25.26
2017-08-18T09:42:04.074Z,25.33
2017-08-18T09:44:31.655Z,25.59
2017-08-18T09:46:59.118Z,25.51
2017-08-18T09:49:38.517Z,25.49
2017-08-18T09:55:15.704Z,25.52
2017-08-18T10:00:44.781Z,25.41
2017-08-18T10:03:12.275Z,25.42
2017-08-18T10:05:39.715Z,25.46
2017-08-18T10:08:07.166Z,25.65
2017-08-18T10:10:35.453Z,26.05
2017-08-18T10:13:02.971Z,26.21
2017-08-18T10:15:30.476Z,26.45
2017-08-18T10:17:57.943Z,26.43
2017-08-18T10:20:25.488Z,26.34
2017-08-18T10:22:53.099Z,26.52
2017-08-18T10:25:23.178Z,26.56
2017-08-18T10:27:50.736Z,26.31
2017-08-18T10:30:18.271Z,26.07
2017-08-18T10:32:45.739Z,26.37
2017-08-18T10:35:13.384Z,26.51
2017-08-18T10:37:40.873Z,26.32
2017-08-18T10:40:08.428Z,26.26
2017-08-18T10:42:37.352Z,26.47
2017-08-18T10:45:08.486Z,26.36
2017-08-18T10:47:38.425Z,26.69
2017-08-18T10:50:07.426Z,26.41
2017-08-18T10:52:37.123Z,26.52
2017-08-18T10:55:04.740Z,26.51
2017-08-18T10:57:32.283Z,26.57
2017-08-18T10:59:59.734Z,26.43
2017-08-18T11:02:27.301Z,26.55
2017-08-18T11:04:54.751Z,26.60
2017-08-18T11:07:22.223Z,26.46
2017-08-18T11:09:49.676Z,26.32
2017-08-18T11:12:17.260Z,26.46
2017-08-18T11:14:44.794Z,26.75
2017-08-18T11:17:12.294Z,26.76
2017-08-18T11:19:39.753Z,26.41
2017-08-18T11:22:07.261Z,26.85
2017-08-18T11:24:34.731Z,26.55
2017-08-18T11:27:02.288Z,26.60
2017-08-18T11:29:29.853Z,26.66
2017-08-18T11:31:57.345Z,26.75
2017-08-18T11:34:24.808Z,26.75
2017-08-18T11:36:52.283Z,26.67
2017-08-18T11:39:19.739Z,26.66
2017-08-18T11:41:47.227Z,26.65
2017-08-18T11:44:14.794Z,26.50
2017-08-18T11:46:42.305Z,26.54
2017-08-18T11:49:09.847Z,26.10
2017-08-18T11:51:37.304Z,26.31
2017-08-18T11:54:04.791Z,26.34
2017-08-18T11:56:32.266Z,26.42
2017-08-18T11:58:59.758Z,26.45
2017-08-18T12:01:27.223Z,26.47
2017-08-18T12:03:54.742Z,26.40
2017-08-18T12:06:22.371Z,26.43
2017-08-18T12:08:49.947Z,26.47
2017-08-18T12:11:17.419Z,26.27
2017-08-18T12:13:44.924Z,26.46
2017-08-18T12:16:12.380Z,26.46
2017-08-18T12:18:40.087Z,26.44
2017-08-18T12:21:07.555Z,26.46
2017-08-18T12:23:35.121Z,26.53
2017-08-18T12:26:02.579Z,26.63
2017-08-18T12:28:30.045Z,26.61
2017-08-18T12:30:57.935Z,26.35
2017-08-18T12:33:25.401Z,26.38
2017-08-18T12:35:52.875Z,26.31
2017-08-18T12:38:20.469Z,26.30
2017-08-18T12:40:47.947Z,26.37
2017-08-18T12:43:15.467Z,26.01
2017-08-18T12:45:43.063Z,26.14
2017-08-18T12:48:10.579Z,26.15
2017-08-18T12:50:38.071Z,26.36
2017-08-18T12:53:05.524Z,26.36
2017-08-18T12:55:33.022Z,26.24
2017-08-18T12:58:00.713Z,26.42
2017-08-18T13:00:28.205Z,26.49
2017-08-18T13:02:55.665Z,26.34
2017-08-18T13:05:23.144Z,26.56
2017-08-18T13:07:50.601Z,26.39
2017-08-18T13:10:18.130Z,26.21
2017-08-18T13:12:45.629Z,26.12
2017-08-18T13:15:13.140Z,26.13
2017-08-18T13:17:40.643Z,26.33
2017-08-18T13:20:08.084Z,26.03
2017-08-18T13:22:35.588Z,25.96
2017-08-18T13:25:03.054Z,26.02
2017-08-18T13:27:30.532Z,26.12
2017-08-18T13:29:58.064Z,26.03
2017-08-18T13:32:25.557Z,26.08
2017-08-18T13:34:53.077Z,25.97
2017-08-18T13:37:20.650Z,26.04
2017-08-18T13:39:48.152Z,25.95
2017-08-18T13:42:15.651Z,26.01
2017-08-18T13:44:43.103Z,25.90
2017-08-18T13:47:10.585Z,25.84
2017-08-18T13:49:38.172Z,25.30
2017-08-18T13:52:05.681Z,24.95
2017-08-18T13:54:33.166Z,24.63
2017-08-18T13:57:00.697Z,24.19
2017-08-18T13:59:28.256Z,24.09
2017-08-18T14:01:56.023Z,23.45
2017-08-18T14:04:23.503Z,22.97
2017-08-18T14:06:51.048Z,22.60
2017-08-18T14:09:18.593Z,22.05
2017-08-18T14:11:46.059Z,22.12
2017-08-18T14:14:13.611Z,22.13
2017-08-18T14:16:41.067Z,22.11
2017-08-18T14:19:08.625Z,21.78
2017-08-18T14:21:36.183Z,21.65
2017-08-18T14:24:03.639Z,21.48
2017-08-18T14:26:37.134Z,21.46
2017-08-18T14:29:04.681Z,21.51
2017-08-18T14:31:32.272Z,21.51
2017-08-18T14:33:59.831Z,21.31
2017-08-18T14:36:27.410Z,21.32
2017-08-18T14:38:55.232Z,21.32
2017-08-18T14:41:22.735Z,21.29
2017-08-18T14:43:50.184Z,21.33
2017-08-18T14:46:17.658Z,21.37
2017-08-18T14:48:45.120Z,21.64
2017-08-18T14:51:12.882Z,21.35
2017-08-18T14:53:40.399Z,21.29
2017-08-18T14:56:07.953Z,21.26
2017-08-18T14:58:35.509Z,21.25
2017-08-18T15:01:03.063Z,21.23
2017-08-18T15:03:31.101Z,21.28
2017-08-18T15:05:58.557Z,21.25
2017-08-18T15:08:26.031Z,21.15
2017-08-18T15:10:53.484Z,21.14
2017-08-18T15:13:21.077Z,21.22
2017-08-18T15:15:48.533Z,21.22
2017-08-18T15:18:16.140Z,21.27
2017-08-18T15:20:43.651Z,21.50
2017-08-18T15:23:11.148Z,21.34
2017-08-18T15:25:38.607Z,21.28
2017-08-18T15:28:06.084Z,21.23
2017-08-18T15:30:33.567Z,21.29
2017-08-18T15:33:01.047Z,21.17
2017-08-18T15:35:28.580Z,21.19
2017-08-18T15:37:56.086Z,21.11
2017-08-18T15:40:23.593Z,21.11
2017-08-18T15:42:51.182Z,21.12
2017-08-18T15:45:18.632Z,21.10
2017-08-18T15:47:46.115Z,20.94
2017-08-18T15:50:13.631Z,20.81
2017-08-18T15:52:41.094Z,20.94
2017-08-18T15:55:08.634Z,20.92
2017-08-18T15:57:36.097Z,20.70
2017-08-18T16:00:03.654Z,20.64
2017-08-18T16:02:31.212Z,20.51
2017-08-18T16:04:58.791Z,20.43
2017-08-18T16:07:26.570Z,20.31
2017-08-18T16:09:54.094Z,20.47
2017-08-18T16:12:21.567Z,20.28
2017-08-18T16:14:49.069Z,20.42
2017-08-18T16:17:16.515Z,20.27
2017-08-18T16:19:43.980Z,19.96
2017-08-18T16:22:11.499Z,19.83
2017-08-18T16:24:39.037Z,19.74
2017-08-18T16:27:06.493Z,19.79
2017-08-18T16:29:33.963Z,19.94
2017-08-18T16:32:02.061Z,20.14
2017-08-18T16:34:29.634Z,20.15
2017-08-18T16:36:57.111Z,19.81
2017-08-18T16:39:24.576Z,20.03
2017-08-18T16:41:52.055Z,19.95
2017-08-18T16:44:19.610Z,19.81
2017-08-18T16:46:47.075Z,19.88
2017-08-18T16:49:14.537Z,19.75
2017-08-18T16:51:42.092Z,19.64
2017-08-18T16:54:09.549Z,19.62
2017-08-18T16:56:37.115Z,19.90
2017-08-18T16:59:04.652Z,19.86
2017-08-18T17:01:32.207Z,19.76
2017-08-18T17:03:59.680Z,19.91
2017-08-18T17:06:27.281Z,19.75
2017-08-18T17:08:54.800Z,19.73
2017-08-18T17:11:22.247Z,19.76
2017-08-18T17:13:49.750Z,19.69
2017-08-18T17:16:17.297Z,19.66
2017-08-18T17:18:44.774Z,19.68
2017-08-18T17:21:12.224Z,19.78
2017-08-18T17:23:39.912Z,20.36
2017-08-18T17:26:07.375Z,19.98
2017-08-18T17:28:34.957Z,19.79
2017-08-18T17:31:02.417Z,19.61
2017-08-18T17:33:29.999Z,19.62
2017-08-18T17:35:57.553Z,19.91
2017-08-18T17:38:25.076Z,19.52
2017-08-18T17:40:52.545Z,19.50
2017-08-18T17:43:20.044Z,19.46
2017-08-18T17:45:47.520Z,19.46
2017-08-18T17:48:15.243Z,19.47
2017-08-18T17:50:42.739Z,19.46
2017-08-18T17:53:10.195Z,19.68
2017-08-18T17:55:37.667Z,19.73
2017-08-18T17:58:05.126Z,19.62
2017-08-18T18:00:32.604Z,19.79
2017-08-18T18:03:00.059Z,19.67
2017-08-18T18:05:27.566Z,19.85
2017-08-18T18:07:55.022Z,19.72
2017-08-18T18:10:22.509Z,19.73
2017-08-18T18:12:50.119Z,19.79
2017-08-18T18:15:17.601Z,19.96
2017-08-18T18:17:45.085Z,19.60
2017-08-18T18:20:12.558Z,19.69
2017-08-18T18:22:40.084Z,19.64
2017-08-18T18:25:07.676Z,19.74
2017-08-18T18:27:35.198Z,19.67
2017-08-18T18:30:02.660Z,19.64
2017-08-18T18:32:30.131Z,19.66
2017-08-18T18:34:57.616Z,19.53
2017-08-18T18:37:25.170Z,19.46
2017-08-18T18:39:52.675Z,19.45
2017-08-18T18:42:20.153Z,19.39
2017-08-18T18:44:47.635Z,19.36
2017-08-18T18:47:15.197Z,19.37
2017-08-18T18:49:42.806Z,19.29
2017-08-18T18:52:10.290Z,19.17
2017-08-18T18:54:37.740Z,19.15
2017-08-18T18:57:05.216Z,19.18
2017-08-18T18:59:32.664Z,19.08
2017-08-18T19:02:00.265Z,18.92
2017-08-18T19:04:27.795Z,18.89
2017-08-18T19:06:55.262Z,18.94
2017-08-18T19:09:22.814Z,19.00
2017-08-18T19:11:50.373Z,18.92
2017-08-18T19:14:17.947Z,18.94
2017-08-18T19:16:45.490Z,18.93
2017-08-18T19:19:13.049Z,18.81
2017-08-18T19:21:40.507Z,18.79
2017-08-18T19:24:08.015Z,18.82
2017-08-18T19:26:35.459Z,19.19
2017-08-18T19:29:02.947Z,18.81
2017-08-18T19:31:30.414Z,18.69
2017-08-18T19:33:58.010Z,18.70
2017-08-18T19:36:25.477Z,18.62
2017-08-18T19:38:52.958Z,18.76
2017-08-18T19:41:20.557Z,18.68
2017-08-18T19:43:48.015Z,18.67
2017-08-18T19:46:15.701Z,18.68
2017-08-18T19:48:43.547Z,18.57
2017-08-18T19:51:11.039Z,18.61
2017-08-18T19:53:39.505Z,18.81
2017-08-18T19:56:07.516Z,18.81
2017-08-18T19:58:35.044Z,18.58
2017-08-18T20:01:02.707Z,18.82
2017-08-18T20:03:30.288Z,18.77
2017-08-18T20:05:57.850Z,18.77
2017-08-18T20:08:26.123Z,18.88
2017-08-18T20:10:53.944Z,18.73
2017-08-18T20:13:21.556Z,18.92
2017-08-18T20:15:49.065Z,18.76
2017-08-18T20:18:17.119Z,18.66
2017-08-18T20:20:44.940Z,18.57
2017-08-18T20:23:12.946Z,18.48
2017-08-18T20:25:40.675Z,18.35
2017-08-18T20:28:08.763Z,18.43
2017-08-18T20:30:36.305Z,18.48
2017-08-18T20:33:04.956Z,18.45
2017-08-18T20:35:32.617Z,18.55
2017-08-18T20:38:00.086Z,18.58
2017-08-18T20:40:27.917Z,18.72
2017-08-18T20:42:55.424Z,18.73
2017-08-18T20:45:22.869Z,18.65
2017-08-18T20:47:52.359Z,18.61
2017-08-18T20:50:19.871Z,18.78
2017-08-18T20:52:58.113Z,18.57
2017-08-18T20:55:27.311Z,18.59
2017-08-18T20:57:54.870Z,18.51
2017-08-18T21:00:22.468Z,18.48
2017-08-18T21:02:49.986Z,18.41
2017-08-18T21:05:17.511Z,18.28
2017-08-18T21:07:45.290Z,18.35
2017-08-18T21:10:12.996Z,18.14
2017-08-18T21:12:40.624Z,18.00
2017-08-18T21:15:08.364Z,18.20
2017-08-18T21:17:35.825Z,17.99
2017-08-18T21:20:03.551Z,17.93
2017-08-18T21:22:31.059Z,17.78
2017-08-18T21:24:58.620Z,17.68
2017-08-18T21:27:26.229Z,17.90
2017-08-18T21:29:53.734Z,17.86
2017-08-18T21:32:21.852Z,17.81
2017-08-18T21:34:49.364Z,17.74
2017-08-18T21:37:16.822Z,17.94
2017-08-18T21:39:44.276Z,17.94
2017-08-18T21:42:11.849Z,17.96
2017-08-18T21:44:39.420Z,18.09
2017-08-18T21:47:06.952Z,18.13
2017-08-18T21:49:34.507Z,18.28
2017-08-18T21:52:02.069Z,18.22
2017-08-18T21:54:29.536Z,18.44
2017-08-18T21:56:57.108Z,18.32
2017-08-18T21:59:24.597Z,18.45
2017-08-18T22:01:52.075Z,18.41
2017-08-18T22:04:19.545Z,18.17
2017-08-18T22:06:47.107Z,18.07
2017-08-18T22:09:14.597Z,18.04
2017-08-18T22:11:42.068Z,18.47
2017-08-18T22:14:09.514Z,18.87
2017-08-18T22:16:37.068Z,18.62
2017-08-18T22:19:04.526Z,18.53
2017-08-18T22:21:31.972Z,18.56
2017-08-18T22:23:59.460Z,18.06
2017-08-18T22:26:26.972Z,18.10
2017-08-18T22:28:54.463Z,18.16
2017-08-18T22:31:21.911Z,18.04
2017-08-18T22:33:49.445Z,18.08
2017-08-18T22:36:17.003Z,18.27
2017-08-18T22:38:44.510Z,18.01
2017-08-18T22:41:11.967Z,18.03
2017-08-18T22:43:39.451Z,18.00
2017-08-18T22:46:06.945Z,17.94
2017-08-18T22:48:34.492Z,17.86
2017-08-18T22:51:01.985Z,17.93
2017-08-18T22:53:29.500Z,17.95
2017-08-18T22:55:57.099Z,17.98
2017-08-18T22:58:24.573Z,17.69
2017-08-18T23:00:52.048Z,17.83
2017-08-18T23:03:19.491Z,17.89
2017-08-18T23:05:46.999Z,17.97
2017-08-18T23:08:14.511Z,18.28
2017-08-18T23:10:42.015Z,18.04
2017-08-18T23:13:09.473Z,18.06
2017-08-18T23:15:36.940Z,17.97
2017-08-18T23:18:04.412Z,17.94
2017-08-18T23:20:31.893Z,17.90
2017-08-18T23:22:59.376Z,18.06
2017-08-18T23:25:26.863Z,18.06
2017-08-18T23:27:54.331Z,18.02
2017-08-18T23:30:21.914Z,18.19
2017-08-18T23:32:49.447Z,18.06
2017-08-18T23:35:16.911Z,18.23
2017-08-18T23:37:44.427Z,18.04
2017-08-18T23:40:11.895Z,17.99
2017-08-18T23:42:39.462Z,17.99
2017-08-18T23:45:07.035Z,18.00
2017-08-18T23:47:34.573Z,17.90
2017-08-18T23:50:02.024Z,17.97
2017-08-18T23:52:29.514Z,17.90
2017-08-18T23:54:57.453Z,18.04
2017-08-18T23:57:25.013Z,17.89
2017-08-18T23:59:52.497Z,17.79
